Time;durP1;ratioP1;P1;durP2;ratioP2;P2;SDS_P1;SDS_P2;PMS_P1;PMS_P2;Temp;Humidity;BMP_temperature;BMP_pressure;BME280_temperature;BME280_humidity;BME280_pressure;Samples;Min_cycle;Max_cycle;Signal;HPM_P1;HPM_P2
2022/01/28 00:04:50;;;;;;;4.75;1.40;;;;;;;10.45;54.29;102413.25;5008776;28;20077;-72
2022/01/28 00:07:16;;;;;;;4.93;1.52;;;;;;;10.46;54.56;102417.72;5005838;28;20129;-72
2022/01/28 00:09:43;;;;;;;6.13;1.70;;;;;;;10.46;54.48;102417.72;5006834;28;20145;-72
2022/01/28 00:12:11;;;;;;;6.10;1.95;;;;;;;10.47;54.21;102438.47;5010293;28;20080;-72
2022/01/28 00:37:10;;;;;;;4.57;1.40;;;;;;;10.48;54.13;102490.97;4932088;28;20052;-72
2022/01/28 00:39:37;;;;;;;5.57;1.70;;;;;;;10.46;54.14;102504.59;4998598;28;20058;-72
2022/01/28 00:42:04;;;;;;;5.82;1.30;;;;;;;10.47;54.32;102505.47;5010073;28;20069;-72
2022/01/28 00:44:31;;;;;;;5.25;1.23;;;;;;;10.47;54.14;102514.53;5008458;28;20116;-72
2022/01/28 00:46:58;;;;;;;4.82;1.98;;;;;;;10.46;54.11;102518.19;5007345;28;20127;-72
2022/01/28 00:49:25;;;;;;;6.00;1.40;;;;;;;10.46;54.27;102522.75;5009259;28;20115;-72
2022/01/28 00:51:51;;;;;;;6.90;1.48;;;;;;;10.43;54.07;102526.47;5008913;28;20096;-72
2022/01/28 00:54:18;;;;;;;4.90;1.33;;;;;;;10.43;54.10;102525.56;5007959;28;20119;-73
2022/01/28 00:56:46;;;;;;;4.97;1.48;;;;;;;10.44;53.94;102527.34;5008596;28;20145;-72
2022/01/28 00:59:13;;;;;;;5.45;1.50;;;;;;;10.41;54.00;102531.06;5011604;28;20445;-72
2022/01/28 01:01:40;;;;;;;6.95;1.73;;;;;;;10.41;53.97;102530.19;5009223;28;20504;-72
2022/01/28 01:04:07;;;;;;;3.97;1.35;;;;;;;10.40;54.18;102529.28;5007580;28;20060;-73
2022/01/28 01:06:34;;;;;;;6.22;1.85;;;;;;;10.39;54.24;102540.19;5007906;28;20042;-72
2022/01/28 01:09:02;;;;;;;6.22;1.45;;;;;;;10.39;53.82;102534.78;5008018;28;20527;-72
2022/01/28 01:11:28;;;;;;;5.35;1.42;;;;;;;10.38;54.22;102546.59;5006825;28;20077;-72
2022/01/28 01:13:56;;;;;;;5.95;2.20;;;;;;;10.38;53.82;102554.75;5008436;28;20042;-72
2022/01/28 01:16:34;;;;;;;3.70;1.17;;;;;;;10.35;53.98;102554.88;5006593;28;20084;-72
2022/01/28 01:21:38;;;;;;;7.90;1.67;;;;;;;10.31;54.14;102551.38;5004425;28;20050;-72
2022/01/28 01:24:08;;;;;;;5.22;1.13;;;;;;;10.32;53.94;102569.44;4999202;28;20046;-72
2022/01/28 01:26:38;;;;;;;7.40;1.75;;;;;;;10.31;53.97;102559.50;5010909;28;20133;-72
2022/01/28 01:29:08;;;;;;;5.15;1.15;;;;;;;10.31;53.74;102562.22;5000136;28;20061;-73
2022/01/28 01:31:39;;;;;;;6.53;1.88;;;;;;;10.28;53.89;102563.25;5008284;28;20045;-72
2022/01/28 01:34:13;;;;;;;5.55;1.42;;;;;;;10.28;53.87;102570.50;5007579;28;20050;-72
2022/01/28 01:36:41;;;;;;;5.65;1.48;;;;;;;10.26;53.83;102565.13;5007691;28;20050;-72
2022/01/28 01:39:09;;;;;;;5.43;1.50;;;;;;;10.24;53.72;102566.13;5007504;28;20287;-72
2022/01/28 01:52:50;;;;;;;5.03;1.20;;;;;;;10.11;53.68;102565.69;5009221;28;20046;-72
2022/01/28 01:55:17;;;;;;;6.25;1.38;;;;;;;10.11;53.52;102564.78;5006248;28;20133;-72
2022/01/28 01:57:44;;;;;;;6.55;1.40;;;;;;;10.10;54.01;102566.63;5011975;28;20129;-72
2022/01/28 02:00:13;;;;;;;6.45;1.50;;;;;;;10.09;53.69;102563.97;5020734;28;20077;-71
2022/01/28 02:02:39;;;;;;;7.70;1.60;;;;;;;10.05;53.59;102567.72;5012426;28;20454;-72
2022/01/28 02:05:07;;;;;;;5.70;1.45;;;;;;;10.05;53.62;102567.72;5011095;28;20092;-72
2022/01/28 02:07:34;;;;;;;6.78;1.40;;;;;;;10.04;53.47;102582.25;5011934;28;20054;-72
2022/01/28 02:10:01;;;;;;;8.00;1.65;;;;;;;10.02;53.39;102586.84;5010468;28;20112;-73
2022/01/28 02:12:27;;;;;;;4.75;1.42;;;;;;;10.01;53.13;102579.66;5012417;28;20461;-72
2022/01/28 02:14:54;;;;;;;5.38;1.77;;;;;;;9.99;53.47;102593.25;5012882;28;20319;-72
2022/01/28 02:17:20;;;;;;;7.40;2.28;;;;;;;9.97;53.21;102596.97;5012492;28;20050;-72
2022/01/28 02:19:47;;;;;;;5.22;1.60;;;;;;;9.96;53.31;102598.81;5011290;28;20092;-72
2022/01/28 02:22:14;;;;;;;6.63;2.25;;;;;;;9.93;53.45;102609.78;5012627;28;20120;-72
2022/01/28 02:24:43;;;;;;;4.88;1.63;;;;;;;9.91;53.46;102611.66;5006300;28;20478;-72
2022/01/28 02:27:14;;;;;;;6.60;1.73;;;;;;;9.89;53.33;102610.81;4991812;28;20084;-72
2022/01/28 02:29:43;;;;;;;10.75;1.77;;;;;;;9.87;53.62;102629.88;4992457;28;20054;-72
2022/01/28 02:32:10;;;;;;;7.95;1.77;;;;;;;9.86;53.34;102633.53;4992303;28;20054;-72
2022/01/28 02:34:39;;;;;;;6.10;1.65;;;;;;;9.86;53.06;102638.06;4990305;28;20054;-72
2022/01/28 02:37:06;;;;;;;6.78;1.55;;;;;;;9.85;53.32;102639.91;4992350;28;20081;-72
2022/01/28 02:39:33;;;;;;;5.35;1.67;;;;;;;9.83;53.39;102630.03;4989997;28;20124;-72
2022/01/28 02:42:14;;;;;;;6.57;1.80;;;;;;;9.83;53.56;102635.44;4991608;28;20350;-72
2022/01/28 02:44:50;;;;;;;4.43;1.58;;;;;;;9.82;53.35;102640.00;4995055;28;20153;-72
2022/01/28 02:47:29;;;;;;;6.63;1.75;;;;;;;9.80;53.03;102633.72;5011109;28;20103;-72
2022/01/28 02:49:56;;;;;;;5.32;1.48;;;;;;;9.78;53.08;102638.34;5011711;28;20053;-72
2022/01/28 02:52:33;;;;;;;6.63;1.50;;;;;;;9.78;53.24;102641.06;5011692;28;20054;-72
2022/01/28 02:55:02;;;;;;;5.90;2.30;;;;;;;9.77;53.33;102638.38;5008181;28;20508;-72
2022/01/28 02:57:29;;;;;;;8.45;3.55;;;;;;;9.75;53.36;102651.09;5012518;28;20138;-72
2022/01/28 02:59:55;;;;;;;6.07;4.32;;;;;;;9.75;53.20;102645.69;5010947;28;20088;-72
2022/01/28 03:02:22;;;;;;;7.18;5.03;;;;;;;9.73;53.27;102645.72;5011098;28;20073;-72
2022/01/28 03:05:31;;;;;;;9.98;5.22;;;;;;;9.71;53.13;102646.75;5008446;28;20141;-72
2022/01/28 03:07:50;;;;;;;10.90;4.75;;;;;;;9.69;53.40;102662.19;5010251;28;20424;-72
2022/01/28 03:10:40;;;;;;;8.32;4.95;;;;;;;9.70;53.39;102653.09;5008350;28;20059;-72
2022/01/28 03:13:27;;;;;;;6.18;3.58;;;;;;;9.67;53.44;102661.34;5009875;28;20042;-72
2022/01/28 03:16:05;;;;;;;8.80;3.08;;;;;;;9.65;53.36;102664.09;5009394;28;20060;-72
2022/01/28 03:18:43;;;;;;;6.45;2.33;;;;;;;9.65;53.42;102663.22;5008190;28;20057;-72
2022/01/28 03:23:55;;;;;;;4.72;1.90;;;;;;;9.61;53.40;102654.31;5009656;28;20069;-72
2022/01/28 03:26:27;;;;;;;6.53;2.00;;;;;;;9.62;53.52;102663.34;5008542;28;20481;-72
2022/01/28 03:28:56;;;;;;;7.65;1.90;;;;;;;9.61;53.38;102672.41;5005006;28;20069;-72
2022/01/28 03:31:23;;;;;;;9.35;2.25;;;;;;;9.61;53.54;102684.13;5009382;28;20081;-72
2022/01/28 03:33:50;;;;;;;4.20;2.13;;;;;;;9.59;53.34;102680.59;5010371;28;20058;-72
2022/01/28 03:36:17;;;;;;;5.22;2.10;;;;;;;9.59;53.38;102687.84;5008925;28;20050;-72
2022/01/28 03:38:47;;;;;;;5.88;2.30;;;;;;;9.58;53.36;102686.94;5010314;28;20449;-72
2022/01/28 03:41:17;;;;;;;5.93;2.15;;;;;;;9.57;53.33;102687.00;5010125;28;20127;-72
2022/01/28 03:43:45;;;;;;;6.63;2.47;;;;;;;9.55;53.26;102696.06;5009684;28;20585;-72
2022/01/28 03:46:14;;;;;;;7.78;2.70;;;;;;;9.55;53.31;102690.63;4998232;28;20057;-72
2022/01/28 03:48:41;;;;;;;8.52;2.80;;;;;;;9.52;53.29;102696.19;5008761;28;20085;-72
2022/01/28 03:51:08;;;;;;;8.52;3.10;;;;;;;9.53;53.33;102707.91;5012369;28;20108;-72
2022/01/28 03:53:35;;;;;;;8.70;2.75;;;;;;;9.51;53.34;102710.66;5010038;28;20335;-72
2022/01/28 03:56:02;;;;;;;6.47;2.70;;;;;;;9.51;53.37;102710.66;5012806;28;20046;-72
2022/01/28 03:58:28;;;;;;;8.65;2.75;;;;;;;9.52;53.37;102716.97;5011144;28;20045;-72
2022/01/28 04:00:56;;;;;;;6.35;2.58;;;;;;;9.51;53.30;102726.06;5016145;28;20125;-72
2022/01/28 04:03:39;;;;;;;5.70;2.20;;;;;;;9.49;53.34;102720.66;5010483;28;20058;-72
2022/01/28 04:11:39;;;;;;;8.13;2.10;;;;;;;9.44;53.04;102722.66;5009992;28;20056;-72
2022/01/28 04:14:11;;;;;;;6.18;2.47;;;;;;;9.44;53.29;102736.22;5008221;28;20077;-72
2022/01/28 04:19:23;;;;;;;6.75;3.20;;;;;;;9.42;53.34;102742.59;5016213;28;20123;-72
2022/01/28 04:21:50;;;;;;;6.10;3.22;;;;;;;9.42;53.24;102743.50;5013338;28;20173;-72
2022/01/28 04:24:17;;;;;;;7.18;3.75;;;;;;;9.41;53.37;102740.81;5005756;28;20502;-72
2022/01/28 04:26:44;;;;;;;9.68;4.28;;;;;;;9.42;53.53;102746.22;5011401;28;20121;-72
2022/01/28 04:29:12;;;;;;;7.03;3.53;;;;;;;9.42;53.30;102746.22;5008874;28;20077;-72
2022/01/28 04:31:45;;;;;;;6.55;3.55;;;;;;;9.40;53.21;102747.19;5010151;28;20042;-72
2022/01/28 04:34:13;;;;;;;8.15;3.30;;;;;;;9.39;53.21;102749.00;5008284;28;20480;-72
2022/01/28 04:36:53;;;;;;;9.82;3.40;;;;;;;9.39;53.28;102745.41;5003064;28;20095;-72
2022/01/28 04:39:33;;;;;;;7.57;3.00;;;;;;;9.40;53.33;102758.03;5009544;28;20128;-72
2022/01/28 05:02:56;;;;;;;4.97;1.30;;;;;;;9.40;53.28;102782.44;5010015;28;20084;-72
2022/01/28 05:08:15;;;;;;;5.18;1.30;;;;;;;9.42;53.69;102786.88;5009806;28;20069;-72
2022/01/28 05:26:31;;;;;;;4.68;1.30;;;;;;;9.45;53.23;102815.72;5007480;28;20100;-72
2022/01/28 05:28:58;;;;;;;3.67;2.00;;;;;;;9.44;53.33;102816.66;5010230;28;20082;-71
2022/01/28 05:31:25;;;;;;;5.40;1.58;;;;;;;9.44;53.32;102811.22;5002361;28;20081;-72
2022/01/28 05:33:57;;;;;;;5.80;1.60;;;;;;;9.43;53.43;102809.44;5008426;28;20136;-72
2022/01/28 05:36:24;;;;;;;8.32;1.77;;;;;;;9.43;53.51;102806.75;5006716;28;20134;-72
2022/01/28 05:38:51;;;;;;;7.18;1.80;;;;;;;9.42;53.45;102802.25;5008276;28;20058;-72
2022/01/28 05:41:17;;;;;;;7.53;1.80;;;;;;;9.43;53.23;102806.75;5020789;28;20073;-72
2022/01/28 05:43:44;;;;;;;4.55;1.70;;;;;;;9.41;53.45;102805.91;5012541;28;20547;-72
2022/01/28 05:46:11;;;;;;;7.07;2.25;;;;;;;9.40;53.37;102818.56;5009204;28;20096;-72
2022/01/28 05:48:37;;;;;;;6.53;2.13;;;;;;;9.40;53.39;102818.56;5008648;28;20049;-72
2022/01/28 05:51:04;;;;;;;7.78;2.40;;;;;;;9.40;53.33;102828.50;5007597;28;20160;-72
2022/01/28 05:53:31;;;;;;;7.70;2.30;;;;;;;9.39;53.57;102830.34;5008884;28;20093;-72
2022/01/28 05:55:57;;;;;;;6.85;2.60;;;;;;;9.40;53.42;102823.09;5007439;28;20464;-72
2022/01/28 05:58:24;;;;;;;7.30;2.25;;;;;;;9.39;53.26;102821.31;5009724;28;20454;-72
2022/01/28 06:00:51;;;;;;;9.90;2.35;;;;;;;9.37;53.22;102832.22;5006691;28;20077;-72
2022/01/28 06:03:18;;;;;;;5.07;2.25;;;;;;;9.35;53.30;102842.22;5008401;28;20065;-72
2022/01/28 06:05:47;;;;;;;6.63;2.35;;;;;;;9.35;53.30;102853.06;5007295;28;20050;-72
2022/01/28 06:08:14;;;;;;;6.85;2.58;;;;;;;9.33;53.40;102849.50;5009541;28;20045;-72
2022/01/28 06:10:41;;;;;;;6.43;2.20;;;;;;;9.33;53.15;102854.03;5012912;28;20070;-71
2022/01/28 06:13:09;;;;;;;6.55;2.65;;;;;;;9.33;53.32;102859.44;5008716;28;20053;-72
2022/01/28 06:15:39;;;;;;;7.47;2.67;;;;;;;9.34;53.39;102863.94;5006829;28;20112;-72
2022/01/28 06:18:06;;;;;;;7.28;2.80;;;;;;;9.32;53.40;102858.56;4997383;28;20132;-72
2022/01/28 06:20:33;;;;;;;7.88;2.42;;;;;;;9.31;53.33;102873.06;5001557;28;20081;-72
2022/01/28 06:23:00;;;;;;;6.65;2.40;;;;;;;9.30;53.26;102878.53;5018943;28;20467;-72
2022/01/28 06:25:26;;;;;;;7.60;2.65;;;;;;;9.29;53.20;102877.66;5008331;28;20046;-72
2022/01/28 06:27:53;;;;;;;6.82;2.50;;;;;;;9.30;53.26;102873.13;5008398;28;20488;-70
2022/01/28 06:30:21;;;;;;;6.97;2.67;;;;;;;9.29;53.57;102877.66;4999133;28;20076;-70
2022/01/28 06:32:49;;;;;;;7.70;2.60;;;;;;;9.30;53.13;102870.41;5005750;28;20054;-70
2022/01/28 06:35:17;;;;;;;5.38;2.28;;;;;;;9.30;53.29;102878.53;5007317;28;20073;-72
2022/01/28 06:37:45;;;;;;;9.25;2.97;;;;;;;9.29;53.28;102879.47;5004814;28;20046;-72
2022/01/28 06:40:14;;;;;;;5.45;2.75;;;;;;;9.29;53.15;102879.47;5006638;28;20068;-72
2022/01/28 06:42:41;;;;;;;5.55;2.80;;;;;;;9.26;53.29;102883.16;5006592;28;20072;-72
2022/01/28 06:45:08;;;;;;;5.78;2.58;;;;;;;9.27;53.13;102892.16;5006965;28;20255;-72
2022/01/28 06:47:35;;;;;;;6.20;2.50;;;;;;;9.26;53.29;102890.38;5005289;28;20100;-72
2022/01/28 06:50:05;;;;;;;6.50;3.78;;;;;;;9.26;53.05;102904.84;5006798;28;20054;-72
2022/01/28 06:52:32;;;;;;;8.90;3.70;;;;;;;9.24;53.13;102892.25;5007170;28;20409;-72
2022/01/28 06:55:03;;;;;;;13.23;5.43;;;;;;;9.23;53.50;102890.47;5005851;28;20054;-70
2022/01/28 06:57:30;;;;;;;8.40;4.18;;;;;;;9.21;53.10;102895.06;5012539;28;20057;-70
2022/01/28 06:59:57;;;;;;;10.50;3.50;;;;;;;9.20;53.09;102907.72;5015555;28;20089;-69
2022/01/28 07:02:24;;;;;;;7.30;3.40;;;;;;;9.19;53.20;102913.19;5013868;28;20050;-69
2022/01/28 07:04:51;;;;;;;9.38;4.45;;;;;;;9.17;53.23;102910.50;5011105;28;20092;-70
2022/01/28 07:07:22;;;;;;;6.85;3.42;;;;;;;9.16;53.42;102906.91;5010023;28;20137;-70
2022/01/28 07:09:49;;;;;;;7.40;3.80;;;;;;;9.15;53.28;102918.69;5008412;28;20061;-70
2022/01/28 07:12:17;;;;;;;9.57;3.63;;;;;;;9.15;53.45;102915.97;5003101;28;20430;-72
2022/01/28 07:14:44;;;;;;;6.80;2.78;;;;;;;9.15;53.56;102917.78;5011293;28;20049;-73
2022/01/28 07:17:11;;;;;;;6.97;2.70;;;;;;;9.15;53.29;102917.78;5019994;28;20046;-73
2022/01/28 07:19:38;;;;;;;7.45;2.22;;;;;;;9.14;53.34;102918.75;5008820;28;20092;-73
2022/01/28 07:22:05;;;;;;;6.28;2.20;;;;;;;9.15;53.22;102931.34;5024286;28;20103;-73
2022/01/28 07:24:32;;;;;;;6.07;2.33;;;;;;;9.14;53.72;102929.59;5003492;28;20064;-73
2022/01/28 07:26:59;;;;;;;8.18;1.92;;;;;;;9.14;53.54;102927.72;5001190;28;20533;-73
2022/01/28 07:29:32;;;;;;;5.20;2.00;;;;;;;9.14;53.48;102924.16;4996496;28;20061;-73
2022/01/28 07:32:00;;;;;;;7.00;1.80;;;;;;;9.13;53.60;102925.97;4989678;28;20042;-70
2022/01/28 07:34:27;;;;;;;4.97;1.60;;;;;;;9.16;53.39;102930.41;4996213;28;20049;-72
2022/01/28 07:36:54;;;;;;;4.20;1.60;;;;;;;9.15;53.35;102932.22;5014903;28;20050;-72
2022/01/28 07:39:21;;;;;;;5.03;1.77;;;;;;;9.15;53.16;102934.94;4999251;28;20608;-72
2022/01/28 07:41:48;;;;;;;6.80;2.10;;;;;;;9.15;53.42;102942.19;4990013;28;20050;-72
2022/01/28 07:44:14;;;;;;;4.72;1.65;;;;;;;9.14;53.30;102937.72;4983522;28;20050;-72
2022/01/28 07:46:41;;;;;;;4.95;1.50;;;;;;;9.14;53.42;102940.44;5009464;28;20421;-72
2022/01/28 07:49:13;;;;;;;5.97;2.00;;;;;;;9.11;53.46;102941.38;5006728;28;20057;-73
2022/01/28 07:51:41;;;;;;;7.40;1.65;;;;;;;9.14;53.39;102937.72;5005775;28;20132;-73
2022/01/28 07:54:08;;;;;;;6.38;1.92;;;;;;;9.14;53.51;102949.41;5008622;28;20042;-73
2022/01/28 07:56:36;;;;;;;6.18;1.85;;;;;;;9.16;53.30;102946.66;5009049;28;20049;-72
2022/01/28 07:59:03;;;;;;;6.80;1.67;;;;;;;9.16;53.49;102949.38;5009274;28;20112;-72
2022/01/28 08:01:29;;;;;;;6.40;1.83;;;;;;;9.16;53.45;102949.38;5008123;28;20529;-72
2022/01/28 08:03:56;;;;;;;5.47;1.48;;;;;;;9.17;53.42;102959.28;5010193;28;20597;-72
2022/01/28 08:06:25;;;;;;;5.13;2.13;;;;;;;9.19;53.49;102959.25;5006423;28;20042;-72
2022/01/28 08:08:53;;;;;;;6.00;2.05;;;;;;;9.19;53.44;102961.97;5018637;28;20107;-72
2022/01/28 08:11:19;;;;;;;7.32;1.83;;;;;;;9.21;53.59;102970.94;4986976;28;20145;-71
2022/01/28 08:13:46;;;;;;;7.13;1.90;;;;;;;9.21;53.70;102974.56;4985832;28;20089;-72
2022/01/28 08:16:12;;;;;;;5.97;2.10;;;;;;;9.22;53.62;102981.75;4983121;28;20050;-72
2022/01/28 08:18:39;;;;;;;5.50;1.90;;;;;;;9.24;53.30;102981.69;4979670;28;20060;-71
2022/01/28 08:21:06;;;;;;;7.30;2.60;;;;;;;9.23;53.74;102978.09;4985135;28;20077;-71
2022/01/28 08:23:33;;;;;;;7.22;2.70;;;;;;;9.25;53.60;102991.59;4987190;28;20050;-72
2022/01/28 08:26:00;;;;;;;6.38;2.88;;;;;;;9.27;53.81;102990.63;4984776;28;20055;-72
2022/01/28 08:28:27;;;;;;;5.80;2.30;;;;;;;9.29;53.58;102998.75;4987233;28;20050;-72
2022/01/28 08:30:55;;;;;;;5.60;2.65;;;;;;;9.30;53.68;102997.81;4985929;28;20506;-72
2022/01/28 08:33:21;;;;;;;6.35;2.15;;;;;;;9.32;53.80;103012.19;4980819;28;20113;-72
2022/01/28 08:35:52;;;;;;;5.10;2.10;;;;;;;9.34;53.66;103018.47;4982726;28;20486;-72
2022/01/28 08:38:30;;;;;;;4.05;2.28;;;;;;;9.36;53.75;103019.31;4985035;28;20137;-72
2022/01/28 08:40:59;;;;;;;7.82;2.47;;;;;;;9.37;53.81;103015.69;4988350;28;20089;-72
2022/01/28 08:43:26;;;;;;;6.07;2.30;;;;;;;9.39;53.92;103025.53;4986032;28;20375;-72
2022/01/28 08:45:53;;;;;;;5.85;2.65;;;;;;;9.40;53.94;103027.31;4997314;28;20062;-72
2022/01/28 08:48:19;;;;;;;7.88;3.00;;;;;;;9.42;54.01;103030.88;5008896;28;20085;-72
2022/01/28 08:50:46;;;;;;;8.00;3.70;;;;;;;9.44;53.98;103030.84;5007643;28;20355;-72
2022/01/28 08:53:13;;;;;;;8.30;3.13;;;;;;;9.44;53.74;103036.25;5008608;28;20081;-72
2022/01/28 08:55:40;;;;;;;9.07;3.83;;;;;;;9.46;53.87;103035.31;5007722;28;20073;-72
2022/01/28 08:58:09;;;;;;;7.18;3.10;;;;;;;9.47;53.75;103031.63;5014080;28;20041;-72
2022/01/28 09:00:36;;;;;;;7.70;3.25;;;;;;;9.49;53.92;103028.88;5005961;28;20085;-72
2022/01/28 09:03:03;;;;;;;5.25;3.38;;;;;;;9.52;53.88;103045.06;5011384;28;20505;-72
2022/01/28 09:05:33;;;;;;;6.57;3.25;;;;;;;9.53;53.98;103036.91;4991994;28;20050;-72
2022/01/28 09:08:06;;;;;;;5.60;3.60;;;;;;;9.54;53.99;103022.41;4988582;28;20058;-72
2022/01/28 09:10:33;;;;;;;9.85;3.88;;;;;;;9.55;53.96;103031.44;4987009;28;20060;-72
2022/01/28 09:15:30;;;;;;;7.15;2.72;;;;;;;9.61;53.97;103033.09;4986464;28;20177;-72
2022/01/28 09:17:57;;;;;;;7.88;2.70;;;;;;;9.62;54.12;103033.06;4987332;28;20478;-72
2022/01/28 09:20:28;;;;;;;6.30;2.72;;;;;;;9.65;54.04;103027.53;4987061;28;20086;-72
2022/01/28 09:22:57;;;;;;;6.57;2.58;;;;;;;9.66;54.08;103031.13;4987683;28;20481;-72
2022/01/28 09:25:24;;;;;;;6.28;2.60;;;;;;;9.67;53.99;103025.66;4986939;28;20129;-72
2022/01/28 09:27:50;;;;;;;6.50;2.80;;;;;;;9.71;53.96;103037.31;4986980;28;20054;-72
2022/01/28 09:30:18;;;;;;;7.88;2.53;;;;;;;9.74;54.02;103045.34;4987118;28;20050;-72
2022/01/28 09:32:45;;;;;;;5.65;2.17;;;;;;;9.76;53.92;103048.91;4987979;28;20165;-73
2022/01/28 09:35:12;;;;;;;7.85;2.70;;;;;;;9.78;54.04;103042.53;4985930;28;20391;-72
2022/01/28 09:37:38;;;;;;;6.20;2.33;;;;;;;9.81;54.28;103037.00;4987153;28;20129;-73
2022/01/28 09:40:08;;;;;;;6.13;2.33;;;;;;;9.86;54.15;103040.47;4995988;28;20136;-73
2022/01/28 09:42:40;;;;;;;6.45;2.15;;;;;;;9.90;54.23;103054.84;5008480;28;20482;-72
2022/01/28 09:45:09;;;;;;;7.00;2.63;;;;;;;9.95;54.33;103057.44;5007588;28;20076;-73
2022/01/28 09:47:37;;;;;;;8.18;2.50;;;;;;;9.98;54.13;103063.63;5007952;28;20354;-72
2022/01/28 09:50:05;;;;;;;7.57;2.50;;;;;;;10.03;54.17;103055.38;5007787;28;20104;-72
2022/01/28 09:52:32;;;;;;;8.32;2.28;;;;;;;10.06;54.36;103049.84;5008162;28;20104;-72
2022/01/28 09:54:59;;;;;;;5.20;2.50;;;;;;;10.09;54.19;103039.78;5005598;28;20116;-72
2022/01/28 09:57:26;;;;;;;7.72;2.60;;;;;;;10.13;54.26;103046.91;5014845;28;20091;-72
2022/01/28 09:59:53;;;;;;;6.70;2.42;;;;;;;10.17;54.27;103048.63;5005418;28;20120;-72
2022/01/28 10:02:19;;;;;;;6.00;2.05;;;;;;;10.21;54.32;103055.72;5007342;28;20072;-72
2022/01/28 10:04:46;;;;;;;6.07;2.05;;;;;;;10.25;54.39;103046.56;5006369;28;20049;-72
2022/01/28 10:07:15;;;;;;;4.68;2.10;;;;;;;10.32;54.47;103057.25;5006210;28;20092;-72
2022/01/28 10:10:03;;;;;;;6.13;2.58;;;;;;;10.37;53.63;103067.03;5005489;28;20129;-72
2022/01/28 10:12:43;;;;;;;5.95;2.10;;;;;;;10.42;54.23;103072.31;5003725;28;20109;-72
2022/01/28 10:15:18;;;;;;;5.95;2.22;;;;;;;10.47;54.07;103075.75;5006404;28;20045;-72
2022/01/28 10:18:00;;;;;;;11.35;2.83;;;;;;;10.54;54.12;103074.66;5004791;28;20385;-73
2022/01/28 10:20:28;;;;;;;5.43;2.20;;;;;;;10.58;54.27;103081.75;5009775;28;20080;-72
2022/01/28 10:22:57;;;;;;;9.32;2.47;;;;;;;10.65;54.17;103091.50;5010401;28;20049;-72
2022/01/28 10:25:26;;;;;;;6.88;2.30;;;;;;;10.68;53.87;103088.69;5007364;28;20058;-72
2022/01/28 10:28:16;;;;;;;7.30;2.08;;;;;;;10.75;53.54;103093.00;5009127;28;20161;-72
2022/01/28 10:30:43;;;;;;;5.05;2.13;;;;;;;10.75;54.04;103083.94;4997438;28;20096;-72
2022/01/28 10:33:16;;;;;;;5.93;2.10;;;;;;;10.80;53.90;103091.00;5015243;28;20093;-72
2022/01/28 10:35:57;;;;;;;6.20;2.30;;;;;;;10.86;53.35;103084.50;4998887;28;20140;-72
2022/01/28 10:38:31;;;;;;;7.93;2.25;;;;;;;10.90;53.19;103084.34;4986182;28;20169;-72
2022/01/28 10:41:16;;;;;;;5.65;2.03;;;;;;;10.92;53.10;103085.19;4998214;28;20104;-72
2022/01/28 10:43:51;;;;;;;10.55;2.30;;;;;;;10.96;53.30;103084.13;4984826;28;20468;-72
2022/01/28 10:46:23;;;;;;;7.00;2.30;;;;;;;11.00;53.35;103074.06;4988674;28;20125;-72
2022/01/28 10:48:56;;;;;;;6.78;2.10;;;;;;;11.04;53.26;103073.00;4991863;28;20449;-72
2022/01/28 10:51:37;;;;;;;8.95;2.30;;;;;;;11.06;53.00;103082.88;4991714;28;20046;-72
2022/01/28 10:54:20;;;;;;;4.90;1.70;;;;;;;11.08;53.49;103085.56;4993463;28;20046;-72
2022/01/28 10:56:58;;;;;;;6.82;2.20;;;;;;;11.15;52.77;103072.66;5012406;28;20481;-72
2022/01/28 10:59:26;;;;;;;8.30;2.20;;;;;;;11.15;52.97;103076.25;5010138;28;20104;-72
2022/01/28 11:01:53;;;;;;;8.85;2.22;;;;;;;11.17;52.83;103071.66;5009521;28;20486;-72
2022/01/28 11:04:22;;;;;;;5.18;2.10;;;;;;;11.19;53.09;103074.34;5009917;28;20061;-72
2022/01/28 11:06:51;;;;;;;5.90;2.13;;;;;;;11.20;52.80;103068.81;5009648;28;20077;-73
2022/01/28 11:09:20;;;;;;;5.72;1.90;;;;;;;11.22;52.83;103077.81;5009730;28;20103;-71
2022/01/28 11:11:48;;;;;;;6.47;1.98;;;;;;;11.22;53.21;103079.66;5010797;28;20417;-72
2022/01/28 11:14:16;;;;;;;6.35;2.00;;;;;;;11.24;52.79;103075.94;5007399;28;20053;-72
2022/01/28 11:16:43;;;;;;;8.40;2.35;;;;;;;11.27;52.93;103084.00;5010054;28;20081;-72
2022/01/28 11:19:13;;;;;;;6.28;1.92;;;;;;;11.29;52.60;103073.94;5008843;28;20050;-73
2022/01/28 11:22:08;;;;;;;9.40;2.70;;;;;;;11.32;52.38;103086.56;5010666;28;20475;-73
2022/01/28 11:24:58;;;;;;;6.50;2.00;;;;;;;11.33;52.26;103080.19;5007801;28;20146;-73
2022/01/28 11:27:30;;;;;;;6.32;1.98;;;;;;;11.36;52.61;103086.41;4994617;28;20046;-73
2022/01/28 11:30:22;;;;;;;7.35;1.83;;;;;;;11.37;51.96;103093.59;4996312;28;20064;-72
2022/01/28 11:33:01;;;;;;;7.35;2.00;;;;;;;11.41;52.09;103091.69;4986476;28;20043;-72
2022/01/28 11:35:33;;;;;;;5.85;2.03;;;;;;;11.42;52.36;103093.47;4996103;28;20046;-72
2022/01/28 11:38:04;;;;;;;6.40;1.90;;;;;;;11.42;52.36;103093.47;5001899;28;20049;-72
2022/01/28 11:40:43;;;;;;;6.45;1.73;;;;;;;11.48;51.50;103079.63;5007047;28;20049;-72
2022/01/28 11:43:50;;;;;;;6.75;2.00;;;;;;;11.44;51.38;103067.09;5009582;28;20050;-72
2022/01/28 11:46:19;;;;;;;6.65;1.80;;;;;;;11.45;51.90;103069.75;4966502;28;20051;-72
2022/01/28 11:48:51;;;;;;;6.32;1.63;;;;;;;11.49;51.44;103059.66;4966878;28;20120;-72
2022/01/28 11:51:22;;;;;;;5.35;1.70;;;;;;;11.48;51.53;103054.25;4960963;28;20080;-72
2022/01/28 11:53:57;;;;;;;6.60;2.05;;;;;;;11.50;51.04;103044.22;4962721;28;20047;-72
2022/01/28 11:56:25;;;;;;;6.18;1.73;;;;;;;11.49;52.14;103043.34;4983220;28;20039;-72
2022/01/28 11:59:04;;;;;;;6.15;1.48;;;;;;;11.54;51.32;103046.78;4972882;28;20082;-71
2022/01/28 12:01:39;;;;;;;6.70;2.00;;;;;;;11.57;51.17;103052.13;4985828;28;20591;-72
2022/01/28 12:04:29;;;;;;;7.30;1.60;;;;;;;11.56;51.32;103044.88;4979582;28;20134;-73
2022/01/28 12:07:10;;;;;;;5.35;1.55;;;;;;;11.61;51.14;103040.16;4987216;28;20046;-73
2022/01/28 12:09:38;;;;;;;7.13;1.70;;;;;;;11.64;51.83;103033.72;4986378;28;20086;-73
2022/01/28 12:12:10;;;;;;;8.18;1.60;;;;;;;11.68;51.93;103039.03;4992921;28;20100;-73
2022/01/28 12:14:52;;;;;;;4.65;1.80;;;;;;;11.72;51.62;103039.78;4985284;28;20418;-73
2022/01/28 12:17:36;;;;;;;6.87;1.70;;;;;;;11.78;51.18;103039.56;4984365;28;20087;-73
2022/01/28 12:20:36;;;;;;;3.92;1.77;;;;;;;11.79;51.15;103039.53;4984030;28;20058;-73
2022/01/28 12:23:09;;;;;;;5.50;1.48;;;;;;;11.86;51.13;103034.72;4988869;28;20281;-72
2022/01/28 12:25:36;;;;;;;9.07;1.70;;;;;;;11.85;51.59;103026.66;4982704;28;20045;-73
2022/01/28 12:28:20;;;;;;;5.95;1.40;;;;;;;11.91;50.62;103038.19;4981431;28;20142;-73
2022/01/28 12:30:48;;;;;;;6.15;1.70;;;;;;;11.94;51.29;103021.72;4999547;28;20136;-73
2022/01/28 12:33:26;;;;;;;4.80;1.73;;;;;;;11.99;50.85;103025.19;5009679;28;20050;-74
2022/01/28 12:35:56;;;;;;;10.02;2.95;;;;;;;12.01;51.41;103025.13;5007243;28;20559;-74
2022/01/28 12:38:28;;;;;;;5.15;1.60;;;;;;;12.04;51.34;103023.16;5010381;28;20468;-74
2022/01/28 12:41:08;;;;;;;5.30;1.90;;;;;;;12.05;51.23;103024.94;4986527;28;20084;-74
2022/01/28 12:43:38;;;;;;;6.15;2.00;;;;;;;12.09;50.84;103040.22;4989572;28;20064;-74
2022/01/28 12:46:13;;;;;;;8.65;2.35;;;;;;;12.13;50.24;103039.13;4987431;28;20108;-73
2022/01/28 12:48:48;;;;;;;6.85;1.95;;;;;;;12.14;50.13;103029.13;4989193;28;20056;-73
2022/01/28 12:51:16;;;;;;;4.00;1.90;;;;;;;12.14;50.62;103023.69;5005471;28;20081;-73
2022/01/28 12:53:47;;;;;;;6.53;1.70;;;;;;;12.15;51.00;103020.91;5008791;28;20058;-74
2022/01/28 12:56:17;;;;;;;6.43;2.30;;;;;;;12.18;50.84;103020.81;5005406;28;20525;-73
2022/01/28 12:58:51;;;;;;;5.38;1.70;;;;;;;12.23;50.20;103015.16;5010842;28;20430;-73
2022/01/28 13:01:20;;;;;;;5.53;1.70;;;;;;;12.26;50.86;103027.78;5012908;28;20440;-73
2022/01/28 13:04:02;;;;;;;6.07;1.95;;;;;;;12.29;50.80;103017.63;5006405;28;20124;-73
2022/01/28 13:12:44;;;;;;;3.78;1.65;;;;;;;12.35;50.40;103014.69;5009206;28;20037;-73
2022/01/28 13:15:13;;;;;;;5.00;1.63;;;;;;;12.41;49.91;103016.28;5005497;28;20057;-73
2022/01/28 13:17:52;;;;;;;5.65;1.83;;;;;;;12.41;49.67;103003.53;5008033;28;20045;-73
2022/01/28 13:20:18;;;;;;;6.38;1.52;;;;;;;12.41;49.75;103000.81;5006967;28;20568;-73
2022/01/28 13:22:49;;;;;;;4.93;1.55;;;;;;;12.43;48.69;102996.19;5009747;28;20084;-73